sensor_id;sensor_type;location;lat;lon;timestamp;temperature;humidity
6948;DHT22;3513;47.664;9.162;2024-01-16T00:02:12;-1.90;93.70
6948;DHT22;3513;47.664;9.162;2024-01-16T00:04:37;-1.90;94.00
6948;DHT22;3513;47.664;9.162;2024-01-16T00:07:04;-1.70;94.20
6948;DHT22;3513;47.664;9.162;2024-01-16T00:09:32;-1.70;94.10
6948;DHT22;3513;47.664;9.162;2024-01-16T00:11:57;-1.80;93.80
6948;DHT22;3513;47.664;9.162;2024-01-16T00:14:23;-1.80;94.10
6948;DHT22;3513;47.664;9.162;2024-01-16T00:16:48;-1.80;94.30
6948;DHT22;3513;47.664;9.162;2024-01-16T00:19:14;-1.80;93.70
6948;DHT22;3513;47.664;9.162;2024-01-16T00:21:44;-1.80;93.70
6948;DHT22;3513;47.664;9.162;2024-01-16T00:24:13;-1.70;94.00
6948;DHT22;3513;47.664;9.162;2024-01-16T00:26:39;-1.70;93.90
6948;DHT22;3513;47.664;9.162;2024-01-16T00:29:04;-1.70;93.60
6948;DHT22;3513;47.664;9.162;2024-01-16T00:31:30;-1.70;94.10
6948;DHT22;3513;47.664;9.162;2024-01-16T00:33:56;-1.80;94.10
6948;DHT22;3513;47.664;9.162;2024-01-16T00:36:21;-1.70;94.20
6948;DHT22;3513;47.664;9.162;2024-01-16T00:38:47;-1.70;94.50
6948;DHT22;3513;47.664;9.162;2024-01-16T00:41:12;-1.80;94.60
6948;DHT22;3513;47.664;9.162;2024-01-16T00:43:40;-1.80;95.00
6948;DHT22;3513;47.664;9.162;2024-01-16T00:46:06;-1.80;95.20
6948;DHT22;3513;47.664;9.162;2024-01-16T00:48:31;-1.70;95.00
6948;DHT22;3513;47.664;9.162;2024-01-16T00:50:57;-1.70;95.10
6948;DHT22;3513;47.664;9.162;2024-01-16T00:53:22;-1.60;95.00
6948;DHT22;3513;47.664;9.162;2024-01-16T00:55:48;-1.60;95.10
6948;DHT22;3513;47.664;9.162;2024-01-16T00:58:13;-1.50;94.90
6948;DHT22;3513;47.664;9.162;2024-01-16T01:00:39;-1.30;94.60
6948;DHT22;3513;47.664;9.162;2024-01-16T01:03:05;-1.10;93.60
6948;DHT22;3513;47.664;9.162;2024-01-16T01:05:30;-1.00;93.00
6948;DHT22;3513;47.664;9.162;2024-01-16T01:07:56;-0.90;92.20
6948;DHT22;3513;47.664;9.162;2024-01-16T01:10:22;-0.70;92.10
6948;DHT22;3513;47.664;9.162;2024-01-16T01:12:48;-0.60;91.40
6948;DHT22;3513;47.664;9.162;2024-01-16T01:15:14;-0.50;90.70
6948;DHT22;3513;47.664;9.162;2024-01-16T01:17:40;-0.60;90.80
6948;DHT22;3513;47.664;9.162;2024-01-16T01:20:07;-0.60;90.90
6948;DHT22;3513;47.664;9.162;2024-01-16T01:22:33;-0.60;90.90
6948;DHT22;3513;47.664;9.162;2024-01-16T01:24:59;-0.60;90.80
6948;DHT22;3513;47.664;9.162;2024-01-16T01:27:24;-0.80;91.20
6948;DHT22;3513;47.664;9.162;2024-01-16T01:29:50;-0.80;91.80
6948;DHT22;3513;47.664;9.162;2024-01-16T01:32:15;-0.90;91.60
6948;DHT22;3513;47.664;9.162;2024-01-16T01:34:42;-0.80;91.80
6948;DHT22;3513;47.664;9.162;2024-01-16T01:37:07;-0.80;91.80
6948;DHT22;3513;47.664;9.162;2024-01-16T01:39:33;-0.80;91.80
6948;DHT22;3513;47.664;9.162;2024-01-16T01:41:58;-0.70;92.00
6948;DHT22;3513;47.664;9.162;2024-01-16T01:44:24;-0.60;91.30
6948;DHT22;3513;47.664;9.162;2024-01-16T01:46:51;-0.60;91.00
6948;DHT22;3513;47.664;9.162;2024-01-16T01:49:18;-0.70;91.30
6948;DHT22;3513;47.664;9.162;2024-01-16T01:51:44;-0.60;91.40
6948;DHT22;3513;47.664;9.162;2024-01-16T01:54:10;-0.60;91.30
6948;DHT22;3513;47.664;9.162;2024-01-16T01:56:36;-0.60;91.20
6948;DHT22;3513;47.664;9.162;2024-01-16T01:59:02;-0.60;91.50
6948;DHT22;3513;47.664;9.162;2024-01-16T02:01:30;-0.60;92.00
6948;DHT22;3513;47.664;9.162;2024-01-16T02:03:57;-0.60;91.90
6948;DHT22;3513;47.664;9.162;2024-01-16T02:06:24;-0.60;92.00
6948;DHT22;3513;47.664;9.162;2024-01-16T02:08:51;-0.60;92.10
6948;DHT22;3513;47.664;9.162;2024-01-16T02:11:16;-0.60;92.40
6948;DHT22;3513;47.664;9.162;2024-01-16T02:13:42;-0.80;92.60
6948;DHT22;3513;47.664;9.162;2024-01-16T02:16:23;-0.80;93.10
6948;DHT22;3513;47.664;9.162;2024-01-16T02:18:50;-0.80;93.60
6948;DHT22;3513;47.664;9.162;2024-01-16T02:21:20;-0.70;93.60
6948;DHT22;3513;47.664;9.162;2024-01-16T02:23:46;-0.70;93.20
6948;DHT22;3513;47.664;9.162;2024-01-16T02:26:16;-0.60;93.10
6948;DHT22;3513;47.664;9.162;2024-01-16T02:28:42;-0.60;93.30
6948;DHT22;3513;47.664;9.162;2024-01-16T02:31:08;-0.80;93.00
6948;DHT22;3513;47.664;9.162;2024-01-16T02:33:34;-0.90;93.10
6948;DHT22;3513;47.664;9.162;2024-01-16T02:35:59;-0.90;93.90
6948;DHT22;3513;47.664;9.162;2024-01-16T02:38:25;-0.80;94.10
6948;DHT22;3513;47.664;9.162;2024-01-16T02:40:50;-0.70;93.70
6948;DHT22;3513;47.664;9.162;2024-01-16T02:43:16;-0.60;93.40
6948;DHT22;3513;47.664;9.162;2024-01-16T02:45:42;-0.70;93.30
6948;DHT22;3513;47.664;9.162;2024-01-16T02:48:08;-0.60;93.80
6948;DHT22;3513;47.664;9.162;2024-01-16T02:50:34;-0.80;93.80
6948;DHT22;3513;47.664;9.162;2024-01-16T02:52:59;-0.80;94.20
6948;DHT22;3513;47.664;9.162;2024-01-16T02:55:25;-0.80;94.40
6948;DHT22;3513;47.664;9.162;2024-01-16T02:57:50;-0.70;94.60
6948;DHT22;3513;47.664;9.162;2024-01-16T03:00:16;-0.70;94.50
6948;DHT22;3513;47.664;9.162;2024-01-16T03:02:43;-0.70;94.50
6948;DHT22;3513;47.664;9.162;2024-01-16T03:05:10;-0.70;94.20
6948;DHT22;3513;47.664;9.162;2024-01-16T03:07:36;-0.70;94.10
6948;DHT22;3513;47.664;9.162;2024-01-16T03:10:02;-0.70;93.50
6948;DHT22;3513;47.664;9.162;2024-01-16T03:12:28;-0.70;93.50
6948;DHT22;3513;47.664;9.162;2024-01-16T03:14:54;-0.80;93.50
6948;DHT22;3513;47.664;9.162;2024-01-16T03:17:19;-0.90;93.40
6948;DHT22;3513;47.664;9.162;2024-01-16T03:19:45;-0.90;94.00
6948;DHT22;3513;47.664;9.162;2024-01-16T03:22:11;-0.90;94.00
6948;DHT22;3513;47.664;9.162;2024-01-16T03:24:37;-0.80;94.00
6948;DHT22;3513;47.664;9.162;2024-01-16T03:27:03;-0.80;93.80
6948;DHT22;3513;47.664;9.162;2024-01-16T03:29:29;-0.70;93.70
6948;DHT22;3513;47.664;9.162;2024-01-16T03:31:55;-0.60;93.70
6948;DHT22;3513;47.664;9.162;2024-01-16T03:34:20;-0.50;93.70
6948;DHT22;3513;47.664;9.162;2024-01-16T03:36:46;-0.50;93.50
6948;DHT22;3513;47.664;9.162;2024-01-16T03:39:11;-0.50;93.40
6948;DHT22;3513;47.664;9.162;2024-01-16T03:41:37;-0.70;93.30
6948;DHT22;3513;47.664;9.162;2024-01-16T03:44:03;-0.80;93.60
6948;DHT22;3513;47.664;9.162;2024-01-16T03:46:28;-0.80;94.10
6948;DHT22;3513;47.664;9.162;2024-01-16T03:48:54;-0.80;94.20
6948;DHT22;3513;47.664;9.162;2024-01-16T03:51:20;-0.80;94.30
6948;DHT22;3513;47.664;9.162;2024-01-16T03:53:46;-0.80;94.60
6948;DHT22;3513;47.664;9.162;2024-01-16T03:56:11;-0.90;94.60
6948;DHT22;3513;47.664;9.162;2024-01-16T03:58:38;-0.90;94.70
6948;DHT22;3513;47.664;9.162;2024-01-16T04:01:05;-0.80;95.10
6948;DHT22;3513;47.664;9.162;2024-01-16T04:03:30;-0.90;94.80
6948;DHT22;3513;47.664;9.162;2024-01-16T04:05:56;-0.90;94.80
6948;DHT22;3513;47.664;9.162;2024-01-16T04:08:21;-0.90;94.50
6948;DHT22;3513;47.664;9.162;2024-01-16T04:10:47;-0.80;94.80
6948;DHT22;3513;47.664;9.162;2024-01-16T04:13:12;-0.80;94.60
6948;DHT22;3513;47.664;9.162;2024-01-16T04:15:38;-0.70;94.10
6948;DHT22;3513;47.664;9.162;2024-01-16T04:18:04;-0.40;93.80
6948;DHT22;3513;47.664;9.162;2024-01-16T04:20:30;-0.30;93.40
6948;DHT22;3513;47.664;9.162;2024-01-16T04:22:56;-0.30;93.30
6948;DHT22;3513;47.664;9.162;2024-01-16T04:25:23;-0.40;93.00
6948;DHT22;3513;47.664;9.162;2024-01-16T04:27:48;-0.40;93.10
6948;DHT22;3513;47.664;9.162;2024-01-16T04:30:14;-0.50;92.60
6948;DHT22;3513;47.664;9.162;2024-01-16T04:32:39;-0.60;92.60
6948;DHT22;3513;47.664;9.162;2024-01-16T04:35:05;-0.70;92.90
6948;DHT22;3513;47.664;9.162;2024-01-16T04:37:31;-0.70;93.30
6948;DHT22;3513;47.664;9.162;2024-01-16T04:39:56;-0.70;93.90
6948;DHT22;3513;47.664;9.162;2024-01-16T04:42:23;-0.60;93.90
6948;DHT22;3513;47.664;9.162;2024-01-16T04:44:49;-0.60;93.70
6948;DHT22;3513;47.664;9.162;2024-01-16T04:47:14;-0.60;93.90
6948;DHT22;3513;47.664;9.162;2024-01-16T04:49:42;-0.60;93.80
6948;DHT22;3513;47.664;9.162;2024-01-16T04:52:08;-0.60;93.60
6948;DHT22;3513;47.664;9.162;2024-01-16T04:54:33;-0.60;93.60
6948;DHT22;3513;47.664;9.162;2024-01-16T04:56:59;-0.60;93.80
6948;DHT22;3513;47.664;9.162;2024-01-16T04:59:24;-0.60;93.80
6948;DHT22;3513;47.664;9.162;2024-01-16T05:01:50;-0.60;94.00
6948;DHT22;3513;47.664;9.162;2024-01-16T05:04:16;-0.60;93.70
6948;DHT22;3513;47.664;9.162;2024-01-16T05:06:42;-0.70;93.40
6948;DHT22;3513;47.664;9.162;2024-01-16T05:09:07;-0.80;93.50
6948;DHT22;3513;47.664;9.162;2024-01-16T05:11:34;-0.80;93.90
6948;DHT22;3513;47.664;9.162;2024-01-16T05:14:00;-0.80;94.40
6948;DHT22;3513;47.664;9.162;2024-01-16T05:16:26;-0.70;94.50
6948;DHT22;3513;47.664;9.162;2024-01-16T05:18:52;-0.70;94.10
6948;DHT22;3513;47.664;9.162;2024-01-16T05:21:18;-0.60;94.20
6948;DHT22;3513;47.664;9.162;2024-01-16T05:23:44;-0.60;94.10
6948;DHT22;3513;47.664;9.162;2024-01-16T05:26:09;-0.60;94.10
6948;DHT22;3513;47.664;9.162;2024-01-16T05:28:35;-0.70;94.10
6948;DHT22;3513;47.664;9.162;2024-01-16T05:31:01;-0.60;94.40
6948;DHT22;3513;47.664;9.162;2024-01-16T05:33:26;-0.70;94.10
6948;DHT22;3513;47.664;9.162;2024-01-16T05:35:52;-0.70;94.40
6948;DHT22;3513;47.664;9.162;2024-01-16T05:38:17;-0.70;94.70
6948;DHT22;3513;47.664;9.162;2024-01-16T05:40:43;-0.60;94.80
6948;DHT22;3513;47.664;9.162;2024-01-16T05:43:08;-0.60;94.70
6948;DHT22;3513;47.664;9.162;2024-01-16T05:45:34;-0.70;94.40
6948;DHT22;3513;47.664;9.162;2024-01-16T05:48:00;-0.70;94.40
6948;DHT22;3513;47.664;9.162;2024-01-16T05:50:25;-0.60;94.60
6948;DHT22;3513;47.664;9.162;2024-01-16T05:52:51;-0.60;94.50
6948;DHT22;3513;47.664;9.162;2024-01-16T05:55:16;-0.60;94.30
6948;DHT22;3513;47.664;9.162;2024-01-16T05:57:42;-0.60;94.20
6948;DHT22;3513;47.664;9.162;2024-01-16T06:00:10;-0.50;94.10
6948;DHT22;3513;47.664;9.162;2024-01-16T06:02:35;-0.60;94.00
6948;DHT22;3513;47.664;9.162;2024-01-16T06:05:01;-0.60;94.00
6948;DHT22;3513;47.664;9.162;2024-01-16T06:07:28;-0.80;93.60
6948;DHT22;3513;47.664;9.162;2024-01-16T06:09:53;-0.90;93.70
6948;DHT22;3513;47.664;9.162;2024-01-16T06:12:19;-0.80;94.10
6948;DHT22;3513;47.664;9.162;2024-01-16T06:14:45;-0.90;93.60
6948;DHT22;3513;47.664;9.162;2024-01-16T06:17:11;-0.90;93.70
6948;DHT22;3513;47.664;9.162;2024-01-16T06:19:36;-1.00;93.70
6948;DHT22;3513;47.664;9.162;2024-01-16T06:22:02;-1.00;93.90
6948;DHT22;3513;47.664;9.162;2024-01-16T06:24:27;-1.10;94.10
6948;DHT22;3513;47.664;9.162;2024-01-16T06:26:54;-1.10;94.50
6948;DHT22;3513;47.664;9.162;2024-01-16T06:29:20;-1.00;94.70
6948;DHT22;3513;47.664;9.162;2024-01-16T06:31:45;-1.10;94.60
6948;DHT22;3513;47.664;9.162;2024-01-16T06:34:11;-1.20;94.50
6948;DHT22;3513;47.664;9.162;2024-01-16T06:36:36;-1.30;94.50
6948;DHT22;3513;47.664;9.162;2024-01-16T06:39:02;-1.30;94.70
6948;DHT22;3513;47.664;9.162;2024-01-16T06:41:28;-1.30;94.90
6948;DHT22;3513;47.664;9.162;2024-01-16T06:43:54;-1.40;95.10
6948;DHT22;3513;47.664;9.162;2024-01-16T06:46:19;-1.20;95.70
6948;DHT22;3513;47.664;9.162;2024-01-16T06:48:45;-1.30;95.00
6948;DHT22;3513;47.664;9.162;2024-01-16T06:51:11;-1.30;94.60
6948;DHT22;3513;47.664;9.162;2024-01-16T06:53:39;-1.40;94.70
6948;DHT22;3513;47.664;9.162;2024-01-16T06:56:06;-1.40;94.90
6948;DHT22;3513;47.664;9.162;2024-01-16T06:58:33;-1.50;95.10
6948;DHT22;3513;47.664;9.162;2024-01-16T07:00:59;-1.30;95.70
6948;DHT22;3513;47.664;9.162;2024-01-16T07:03:25;-1.20;95.50
6948;DHT22;3513;47.664;9.162;2024-01-16T07:05:51;-1.20;95.50
6948;DHT22;3513;47.664;9.162;2024-01-16T07:08:17;-1.00;95.30
6948;DHT22;3513;47.664;9.162;2024-01-16T07:10:42;-1.10;95.10
6948;DHT22;3513;47.664;9.162;2024-01-16T07:13:08;-1.20;95.60
6948;DHT22;3513;47.664;9.162;2024-01-16T07:15:33;-1.20;95.80
6948;DHT22;3513;47.664;9.162;2024-01-16T07:17:59;-1.30;95.80
6948;DHT22;3513;47.664;9.162;2024-01-16T07:20:24;-1.30;96.20
6948;DHT22;3513;47.664;9.162;2024-01-16T07:22:50;-1.20;96.20
6948;DHT22;3513;47.664;9.162;2024-01-16T07:25:16;-1.30;96.00
6948;DHT22;3513;47.664;9.162;2024-01-16T07:27:41;-1.20;96.80
6948;DHT22;3513;47.664;9.162;2024-01-16T07:30:08;-1.30;96.60
6948;DHT22;3513;47.664;9.162;2024-01-16T07:32:34;-1.40;96.40
6948;DHT22;3513;47.664;9.162;2024-01-16T07:34:59;-1.50;96.40
6948;DHT22;3513;47.664;9.162;2024-01-16T07:37:25;-1.60;96.50
6948;DHT22;3513;47.664;9.162;2024-01-16T07:39:51;-1.60;97.10
6948;DHT22;3513;47.664;9.162;2024-01-16T07:42:16;-1.70;97.00
6948;DHT22;3513;47.664;9.162;2024-01-16T07:44:42;-1.70;97.50
6948;DHT22;3513;47.664;9.162;2024-01-16T07:47:07;-1.70;97.50
6948;DHT22;3513;47.664;9.162;2024-01-16T07:49:33;-1.60;97.60
6948;DHT22;3513;47.664;9.162;2024-01-16T07:51:59;-1.50;97.10
6948;DHT22;3513;47.664;9.162;2024-01-16T07:54:25;-1.30;97.00
6948;DHT22;3513;47.664;9.162;2024-01-16T07:56:51;-1.20;96.60
6948;DHT22;3513;47.664;9.162;2024-01-16T07:59:17;-1.30;96.40
6948;DHT22;3513;47.664;9.162;2024-01-16T08:01:43;-1.40;96.50
6948;DHT22;3513;47.664;9.162;2024-01-16T08:04:08;-1.50;96.50
6948;DHT22;3513;47.664;9.162;2024-01-16T08:06:34;-1.60;96.60
6948;DHT22;3513;47.664;9.162;2024-01-16T08:09:00;-1.60;97.00
6948;DHT22;3513;47.664;9.162;2024-01-16T08:11:25;-1.50;97.30
6948;DHT22;3513;47.664;9.162;2024-01-16T08:13:51;-1.60;97.10
6948;DHT22;3513;47.664;9.162;2024-01-16T08:16:16;-1.50;97.40
6948;DHT22;3513;47.664;9.162;2024-01-16T08:18:42;-1.50;97.10
6948;DHT22;3513;47.664;9.162;2024-01-16T08:21:08;-1.50;97.20
6948;DHT22;3513;47.664;9.162;2024-01-16T08:23:34;-1.50;97.20
6948;DHT22;3513;47.664;9.162;2024-01-16T08:26:00;-1.50;97.40
6948;DHT22;3513;47.664;9.162;2024-01-16T08:28:26;-1.40;97.50
6948;DHT22;3513;47.664;9.162;2024-01-16T08:30:52;-1.30;97.50
6948;DHT22;3513;47.664;9.162;2024-01-16T08:33:17;-1.30;97.60
6948;DHT22;3513;47.664;9.162;2024-01-16T08:35:43;-1.00;97.10
6948;DHT22;3513;47.664;9.162;2024-01-16T08:38:08;-0.90;96.80
6948;DHT22;3513;47.664;9.162;2024-01-16T08:40:34;-1.10;96.30
6948;DHT22;3513;47.664;9.162;2024-01-16T08:42:59;-1.10;96.60
6948;DHT22;3513;47.664;9.162;2024-01-16T08:45:25;-1.20;96.60
6948;DHT22;3513;47.664;9.162;2024-01-16T08:47:53;-1.30;96.70
6948;DHT22;3513;47.664;9.162;2024-01-16T08:50:19;-1.40;97.10
6948;DHT22;3513;47.664;9.162;2024-01-16T08:52:44;-1.30;97.70
6948;DHT22;3513;47.664;9.162;2024-01-16T08:55:10;-1.10;97.90
6948;DHT22;3513;47.664;9.162;2024-01-16T08:57:38;-0.90;97.80
6948;DHT22;3513;47.664;9.162;2024-01-16T09:00:05;-1.00;97.10
6948;DHT22;3513;47.664;9.162;2024-01-16T09:02:31;-1.00;97.40
6948;DHT22;3513;47.664;9.162;2024-01-16T09:04:57;-1.00;97.50
6948;DHT22;3513;47.664;9.162;2024-01-16T09:07:24;-1.10;97.00
6948;DHT22;3513;47.664;9.162;2024-01-16T09:09:49;-1.10;97.10
6948;DHT22;3513;47.664;9.162;2024-01-16T09:12:15;-1.20;97.10
6948;DHT22;3513;47.664;9.162;2024-01-16T09:14:41;-1.10;97.60
6948;DHT22;3513;47.664;9.162;2024-01-16T09:17:07;-1.00;98.00
6948;DHT22;3513;47.664;9.162;2024-01-16T09:19:32;-1.00;97.20
6948;DHT22;3513;47.664;9.162;2024-01-16T09:21:58;-0.60;97.40
6948;DHT22;3513;47.664;9.162;2024-01-16T09:24:23;-0.60;96.20
6948;DHT22;3513;47.664;9.162;2024-01-16T09:26:49;-0.40;96.60
6948;DHT22;3513;47.664;9.162;2024-01-16T09:29:14;-0.30;95.80
6948;DHT22;3513;47.664;9.162;2024-01-16T09:31:41;-0.50;95.30
6948;DHT22;3513;47.664;9.162;2024-01-16T09:34:07;-0.50;95.50
6948;DHT22;3513;47.664;9.162;2024-01-16T09:36:33;-0.50;95.70
6948;DHT22;3513;47.664;9.162;2024-01-16T09:39:01;-0.30;95.70
6948;DHT22;3513;47.664;9.162;2024-01-16T09:41:27;-0.30;95.30
6948;DHT22;3513;47.664;9.162;2024-01-16T09:43:53;-0.30;95.20
6948;DHT22;3513;47.664;9.162;2024-01-16T09:46:22;-0.20;95.00
6948;DHT22;3513;47.664;9.162;2024-01-16T09:48:51;0.00;94.70
6948;DHT22;3513;47.664;9.162;2024-01-16T09:51:19;0.00;94.40
6948;DHT22;3513;47.664;9.162;2024-01-16T09:53:45;0.10;94.50
6948;DHT22;3513;47.664;9.162;2024-01-16T09:56:20;0.10;94.00
6948;DHT22;3513;47.664;9.162;2024-01-16T09:58:48;0.00;94.40
6948;DHT22;3513;47.664;9.162;2024-01-16T10:01:15;-0.20;94.20
6948;DHT22;3513;47.664;9.162;2024-01-16T10:03:44;-0.30;94.30
6948;DHT22;3513;47.664;9.162;2024-01-16T10:06:11;-0.20;94.40
6948;DHT22;3513;47.664;9.162;2024-01-16T10:08:37;-0.10;94.40
6948;DHT22;3513;47.664;9.162;2024-01-16T10:11:03;0.00;94.50
6948;DHT22;3513;47.664;9.162;2024-01-16T10:13:30;0.20;94.50
6948;DHT22;3513;47.664;9.162;2024-01-16T10:15:56;0.30;94.10
6948;DHT22;3513;47.664;9.162;2024-01-16T10:20:49;0.40;93.40
6948;DHT22;3513;47.664;9.162;2024-01-16T10:23:24;0.40;93.30
6948;DHT22;3513;47.664;9.162;2024-01-16T10:26:11;0.50;93.20
6948;DHT22;3513;47.664;9.162;2024-01-16T10:28:42;0.60;93.20
6948;DHT22;3513;47.664;9.162;2024-01-16T10:31:09;0.70;93.20
6948;DHT22;3513;47.664;9.162;2024-01-16T10:33:35;0.80;93.50
6948;DHT22;3513;47.664;9.162;2024-01-16T10:36:14;1.00;93.10
6948;DHT22;3513;47.664;9.162;2024-01-16T10:38:45;1.00;92.80
6948;DHT22;3513;47.664;9.162;2024-01-16T10:41:15;1.10;92.70
6948;DHT22;3513;47.664;9.162;2024-01-16T10:43:43;1.10;92.70
6948;DHT22;3513;47.664;9.162;2024-01-16T10:46:16;1.00;91.90
6948;DHT22;3513;47.664;9.162;2024-01-16T10:48:43;1.10;92.20
6948;DHT22;3513;47.664;9.162;2024-01-16T10:51:15;1.20;92.00
6948;DHT22;3513;47.664;9.162;2024-01-16T10:53:44;1.10;91.70
6948;DHT22;3513;47.664;9.162;2024-01-16T10:56:12;0.90;91.70
6948;DHT22;3513;47.664;9.162;2024-01-16T10:58:40;1.10;92.10
6948;DHT22;3513;47.664;9.162;2024-01-16T11:01:10;0.90;91.00
6948;DHT22;3513;47.664;9.162;2024-01-16T11:03:49;0.80;91.60
6948;DHT22;3513;47.664;9.162;2024-01-16T11:06:18;0.80;91.90
6948;DHT22;3513;47.664;9.162;2024-01-16T11:08:48;0.80;91.90
6948;DHT22;3513;47.664;9.162;2024-01-16T11:11:14;0.90;92.20
6948;DHT22;3513;47.664;9.162;2024-01-16T11:13:41;1.00;92.50
6948;DHT22;3513;47.664;9.162;2024-01-16T11:16:13;1.00;92.00
6948;DHT22;3513;47.664;9.162;2024-01-16T11:18:39;1.10;92.30
6948;DHT22;3513;47.664;9.162;2024-01-16T11:21:23;1.10;91.90
6948;DHT22;3513;47.664;9.162;2024-01-16T11:23:49;1.30;92.10
6948;DHT22;3513;47.664;9.162;2024-01-16T11:26:31;1.30;91.40
6948;DHT22;3513;47.664;9.162;2024-01-16T11:28:58;1.40;91.90
6948;DHT22;3513;47.664;9.162;2024-01-16T11:33:56;1.50;91.00
6948;DHT22;3513;47.664;9.162;2024-01-16T11:39:18;1.50;91.30
6948;DHT22;3513;47.664;9.162;2024-01-16T11:47:04;1.70;90.10
6948;DHT22;3513;47.664;9.162;2024-01-16T11:49:30;1.70;90.50
6948;DHT22;3513;47.664;9.162;2024-01-16T11:51:59;1.80;90.80
6948;DHT22;3513;47.664;9.162;2024-01-16T11:54:24;1.70;90.20
6948;DHT22;3513;47.664;9.162;2024-01-16T11:59:59;2.00;90.80
6948;DHT22;3513;47.664;9.162;2024-01-16T12:02:57;2.00;90.60
6948;DHT22;3513;47.664;9.162;2024-01-16T12:05:24;2.00;90.90
6948;DHT22;3513;47.664;9.162;2024-01-16T12:07:51;2.10;90.30
6948;DHT22;3513;47.664;9.162;2024-01-16T12:10:19;1.90;88.60
6948;DHT22;3513;47.664;9.162;2024-01-16T12:12:45;2.00;89.10
6948;DHT22;3513;47.664;9.162;2024-01-16T12:15:19;2.20;90.00
6948;DHT22;3513;47.664;9.162;2024-01-16T12:17:52;2.20;89.10
6948;DHT22;3513;47.664;9.162;2024-01-16T12:20:19;2.30;88.50
6948;DHT22;3513;47.664;9.162;2024-01-16T12:22:45;2.40;88.70
6948;DHT22;3513;47.664;9.162;2024-01-16T12:25:10;2.40;88.50
6948;DHT22;3513;47.664;9.162;2024-01-16T12:27:38;2.40;87.10
6948;DHT22;3513;47.664;9.162;2024-01-16T12:30:10;2.50;87.20
6948;DHT22;3513;47.664;9.162;2024-01-16T12:32:38;2.50;87.10
6948;DHT22;3513;47.664;9.162;2024-01-16T12:35:04;2.50;87.80
6948;DHT22;3513;47.664;9.162;2024-01-16T12:37:30;2.60;86.80
6948;DHT22;3513;47.664;9.162;2024-01-16T12:39:58;2.30;86.70
6948;DHT22;3513;47.664;9.162;2024-01-16T12:42:23;3.00;86.90
6948;DHT22;3513;47.664;9.162;2024-01-16T12:44:50;2.80;85.00
6948;DHT22;3513;47.664;9.162;2024-01-16T12:47:19;3.50;86.40
6948;DHT22;3513;47.664;9.162;2024-01-16T12:49:46;2.90;84.80
6948;DHT22;3513;47.664;9.162;2024-01-16T12:52:20;3.00;84.40
6948;DHT22;3513;47.664;9.162;2024-01-16T12:54:47;3.10;83.70
6948;DHT22;3513;47.664;9.162;2024-01-16T12:57:20;3.80;84.30
6948;DHT22;3513;47.664;9.162;2024-01-16T12:59:47;3.20;83.00
6948;DHT22;3513;47.664;9.162;2024-01-16T13:02:21;3.40;83.20
6948;DHT22;3513;47.664;9.162;2024-01-16T13:04:48;3.50;82.50
6948;DHT22;3513;47.664;9.162;2024-01-16T13:07:16;4.40;82.60
6948;DHT22;3513;47.664;9.162;2024-01-16T13:09:43;3.90;79.40
6948;DHT22;3513;47.664;9.162;2024-01-16T13:12:09;3.90;79.40
6948;DHT22;3513;47.664;9.162;2024-01-16T13:14:35;4.10;79.20
6948;DHT22;3513;47.664;9.162;2024-01-16T13:17:01;4.20;77.40
6948;DHT22;3513;47.664;9.162;2024-01-16T13:19:28;4.40;78.00
6948;DHT22;3513;47.664;9.162;2024-01-16T13:22:01;4.70;77.30
6948;DHT22;3513;47.664;9.162;2024-01-16T13:24:28;5.10;76.10
6948;DHT22;3513;47.664;9.162;2024-01-16T13:26:54;5.50;73.00
6948;DHT22;3513;47.664;9.162;2024-01-16T13:29:19;5.90;70.50
6948;DHT22;3513;47.664;9.162;2024-01-16T13:31:45;7.20;70.30
6948;DHT22;3513;47.664;9.162;2024-01-16T13:34:11;6.50;67.70
6948;DHT22;3513;47.664;9.162;2024-01-16T13:36:37;6.80;66.10
6948;DHT22;3513;47.664;9.162;2024-01-16T13:39:03;7.30;65.90
6948;DHT22;3513;47.664;9.162;2024-01-16T13:41:29;7.30;64.00
6948;DHT22;3513;47.664;9.162;2024-01-16T13:43:54;7.90;62.30
6948;DHT22;3513;47.664;9.162;2024-01-16T13:46:20;7.60;61.70
6948;DHT22;3513;47.664;9.162;2024-01-16T13:48:50;7.80;61.30
6948;DHT22;3513;47.664;9.162;2024-01-16T13:51:19;8.20;60.50
6948;DHT22;3513;47.664;9.162;2024-01-16T13:53:45;9.30;59.40
6948;DHT22;3513;47.664;9.162;2024-01-16T13:56:10;8.70;57.30
6948;DHT22;3513;47.664;9.162;2024-01-16T13:58:36;9.30;57.50
6948;DHT22;3513;47.664;9.162;2024-01-16T14:01:02;8.60;56.30
6948;DHT22;3513;47.664;9.162;2024-01-16T14:03:29;8.50;55.40
6948;DHT22;3513;47.664;9.162;2024-01-16T14:05:55;8.60;56.60
6948;DHT22;3513;47.664;9.162;2024-01-16T14:08:21;8.70;56.40
6948;DHT22;3513;47.664;9.162;2024-01-16T14:10:46;8.90;56.40
6948;DHT22;3513;47.664;9.162;2024-01-16T14:13:13;9.10;55.20
6948;DHT22;3513;47.664;9.162;2024-01-16T14:15:38;9.30;54.60
6948;DHT22;3513;47.664;9.162;2024-01-16T14:18:04;9.50;53.90
6948;DHT22;3513;47.664;9.162;2024-01-16T14:20:30;9.70;54.40
6948;DHT22;3513;47.664;9.162;2024-01-16T14:22:56;9.60;52.90
6948;DHT22;3513;47.664;9.162;2024-01-16T14:25:23;9.90;52.20
6948;DHT22;3513;47.664;9.162;2024-01-16T14:27:57;9.10;53.30
6948;DHT22;3513;47.664;9.162;2024-01-16T14:30:23;9.30;54.30
6948;DHT22;3513;47.664;9.162;2024-01-16T14:32:51;9.60;54.20
6948;DHT22;3513;47.664;9.162;2024-01-16T14:35:17;10.00;52.10
6948;DHT22;3513;47.664;9.162;2024-01-16T14:37:43;10.40;51.60
6948;DHT22;3513;47.664;9.162;2024-01-16T14:40:10;10.60;51.00
6948;DHT22;3513;47.664;9.162;2024-01-16T14:42:42;10.50;49.70
6948;DHT22;3513;47.664;9.162;2024-01-16T14:45:16;10.40;51.00
6948;DHT22;3513;47.664;9.162;2024-01-16T14:47:41;10.50;50.60
6948;DHT22;3513;47.664;9.162;2024-01-16T14:50:08;10.70;51.20
6948;DHT22;3513;47.664;9.162;2024-01-16T14:52:35;10.60;49.50
6948;DHT22;3513;47.664;9.162;2024-01-16T14:55:01;10.60;50.00
6948;DHT22;3513;47.664;9.162;2024-01-16T14:57:27;10.60;50.10
6948;DHT22;3513;47.664;9.162;2024-01-16T14:59:56;10.50;49.50
6948;DHT22;3513;47.664;9.162;2024-01-16T15:02:21;10.90;50.20
6948;DHT22;3513;47.664;9.162;2024-01-16T15:04:47;10.60;50.30
6948;DHT22;3513;47.664;9.162;2024-01-16T15:07:14;10.50;49.20
6948;DHT22;3513;47.664;9.162;2024-01-16T15:09:40;10.40;49.50
6948;DHT22;3513;47.664;9.162;2024-01-16T15:12:09;9.70;50.40
6948;DHT22;3513;47.664;9.162;2024-01-16T15:14:34;9.20;51.80
6948;DHT22;3513;47.664;9.162;2024-01-16T15:17:01;8.80;52.20
6948;DHT22;3513;47.664;9.162;2024-01-16T15:19:28;8.40;53.90
6948;DHT22;3513;47.664;9.162;2024-01-16T15:21:54;8.50;54.60
6948;DHT22;3513;47.664;9.162;2024-01-16T15:24:19;8.30;54.10
6948;DHT22;3513;47.664;9.162;2024-01-16T15:26:52;8.20;54.80
6948;DHT22;3513;47.664;9.162;2024-01-16T15:29:19;8.10;54.50
6948;DHT22;3513;47.664;9.162;2024-01-16T15:31:44;7.80;55.10
6948;DHT22;3513;47.664;9.162;2024-01-16T15:34:10;7.20;55.80
6948;DHT22;3513;47.664;9.162;2024-01-16T15:36:36;6.70;57.40
6948;DHT22;3513;47.664;9.162;2024-01-16T15:39:01;6.30;59.10
6948;DHT22;3513;47.664;9.162;2024-01-16T15:41:28;5.90;59.70
6948;DHT22;3513;47.664;9.162;2024-01-16T15:43:53;5.90;61.70
6948;DHT22;3513;47.664;9.162;2024-01-16T15:46:19;5.30;62.80
6948;DHT22;3513;47.664;9.162;2024-01-16T15:48:44;5.00;63.90
6948;DHT22;3513;47.664;9.162;2024-01-16T15:51:10;4.60;65.30
6948;DHT22;3513;47.664;9.162;2024-01-16T15:53:36;4.50;66.20
6948;DHT22;3513;47.664;9.162;2024-01-16T15:56:03;4.00;67.40
6948;DHT22;3513;47.664;9.162;2024-01-16T15:58:31;3.70;68.90
6948;DHT22;3513;47.664;9.162;2024-01-16T16:00:58;3.70;70.40
6948;DHT22;3513;47.664;9.162;2024-01-16T16:03:24;3.60;71.70
6948;DHT22;3513;47.664;9.162;2024-01-16T16:05:50;3.10;72.40
6948;DHT22;3513;47.664;9.162;2024-01-16T16:08:15;2.90;74.10
6948;DHT22;3513;47.664;9.162;2024-01-16T16:10:41;3.10;74.60
6948;DHT22;3513;47.664;9.162;2024-01-16T16:13:07;2.90;75.30
6948;DHT22;3513;47.664;9.162;2024-01-16T16:15:35;2.40;76.70
6948;DHT22;3513;47.664;9.162;2024-01-16T16:18:00;2.30;77.60
6948;DHT22;3513;47.664;9.162;2024-01-16T16:20:26;2.30;78.90